createdAt,value
2017-02-18T00:00:49.352Z,51.97
2017-02-18T00:01:49.379Z,51.39
2017-02-18T00:02:50.052Z,51.77
2017-02-18T00:03:49.846Z,51.48
2017-02-18T00:04:49.858Z,51.58
2017-02-18T00:05:49.488Z,51.39
2017-02-18T00:06:49.916Z,51.39
2017-02-18T00:07:49.941Z,51.48
2017-02-18T00:08:49.970Z,51.39
2017-02-18T00:09:49.994Z,50.9
2017-02-18T00:10:50.027Z,51.39
2017-02-18T00:11:49.651Z,51.39
2017-02-18T00:12:50.093Z,51.29
2017-02-18T00:13:49.713Z,51.29
2017-02-18T00:14:50.137Z,50.88
2017-02-18T00:15:49.766Z,51.2
2017-02-18T00:16:49.803Z,51.48
2017-02-18T00:17:49.825Z,51.46
2017-02-18T00:18:49.849Z,51.58
2017-02-18T00:19:50.271Z,51.26
2017-02-18T00:20:50.295Z,50.98
2017-02-18T00:21:49.928Z,51.17
2017-02-18T00:22:50.352Z,51.07
2017-02-18T00:23:49.981Z,51.17
2017-02-18T00:24:50.082Z,51.17
2017-02-18T00:25:50.039Z,51.36
2017-02-18T00:26:50.474Z,51.36
2017-02-18T00:27:50.095Z,50.88
2017-02-18T00:28:50.528Z,51.07
2017-02-18T00:29:50.545Z,51.07
2017-02-18T00:30:50.574Z,51.26
2017-02-18T00:31:50.207Z,51.29
2017-02-18T00:32:50.247Z,51.56
2017-02-18T00:33:50.256Z,51.07
2017-02-18T00:34:50.685Z,51.36
2017-02-18T00:35:50.710Z,51.46
2017-02-18T00:36:50.342Z,51.26
2017-02-18T00:37:50.383Z,50.88
2017-02-18T00:38:50.787Z,51.26
2017-02-18T00:39:50.421Z,50.78
2017-02-18T00:40:50.449Z,50.69
2017-02-18T00:41:50.475Z,50.69
2017-02-18T00:42:50.501Z,50.69
2017-02-18T00:43:50.928Z,50.88
2017-02-18T00:44:50.558Z,50.88
2017-02-18T00:45:50.982Z,51.07
2017-02-18T00:46:51.026Z,51.07
2017-02-18T00:47:51.047Z,50.98
2017-02-18T00:48:50.666Z,51.07
2017-02-18T00:49:51.089Z,50.98
2017-02-18T00:50:51.132Z,50.98
2017-02-18T00:51:51.154Z,50.88
2017-02-18T00:52:51.178Z,50.98
2017-02-18T00:53:51.056Z,50.88
2017-02-18T00:54:50.849Z,50.88
2017-02-18T00:55:51.252Z,50.98
2017-02-18T00:56:51.282Z,50.88
2017-02-18T00:57:51.310Z,50.49
2017-02-18T00:58:51.196Z,50.69
2017-02-18T00:59:51.374Z,50.59
2017-02-18T01:00:51.389Z,50.59
2017-02-18T01:01:51.422Z,50.49
2017-02-18T01:02:51.445Z,50.49
2017-02-18T01:03:51.331Z,50.4
2017-02-18T01:04:51.506Z,50.3
2017-02-18T01:05:51.525Z,50.4
2017-02-18T01:06:51.569Z,50.3
2017-02-18T01:07:51.181Z,50.01
2017-02-18T01:08:51.479Z,50.11
2017-02-18T01:09:51.240Z,50.11
2017-02-18T01:10:51.268Z,50.3
2017-02-18T01:11:51.301Z,50.4
2017-02-18T01:12:51.334Z,50.3
2017-02-18T01:13:51.603Z,50.59
2017-02-18T01:14:51.768Z,50.49
2017-02-18T01:15:51.811Z,50.49
2017-02-18T01:16:51.431Z,50.59
2017-02-18T01:17:51.860Z,50.49
2017-02-18T01:18:52.135Z,50.59
2017-02-18T01:19:51.923Z,50.59
2017-02-18T01:20:51.539Z,50.49
2017-02-18T01:21:51.963Z,50.3
2017-02-18T01:22:51.597Z,50.3
2017-02-18T01:23:51.623Z,50.59
2017-02-18T01:24:51.655Z,50.4
2017-02-18T01:25:51.683Z,50.49
2017-02-18T01:26:52.105Z,50.4
2017-02-18T01:27:52.128Z,50.59
2017-02-18T01:28:52.152Z,50.59
2017-02-18T01:29:51.799Z,50.59
2017-02-18T01:30:51.814Z,50.59
2017-02-18T01:31:51.852Z,50.21
2017-02-18T01:32:52.276Z,49.73
2017-02-18T01:33:51.900Z,50.11
2017-02-18T01:34:51.913Z,49.82
2017-02-18T01:35:51.946Z,49.89
2017-02-18T01:36:51.976Z,50.11
2017-02-18T01:37:52.400Z,49.99
2017-02-18T01:38:52.034Z,50.21
2017-02-18T01:39:52.454Z,49.99
2017-02-18T01:40:52.495Z,50.01
2017-02-18T01:41:52.106Z,50.09
2017-02-18T01:42:52.545Z,49.99
2017-02-18T01:43:52.561Z,49.99
2017-02-18T01:44:52.194Z,49.99
2017-02-18T01:45:52.614Z,49.79
2017-02-18T01:46:52.648Z,49.91
2017-02-18T01:47:52.276Z,50.09
2017-02-18T01:48:52.701Z,49.89
2017-02-18T01:49:52.325Z,50.09
2017-02-18T01:50:52.363Z,49.79
2017-02-18T01:51:52.782Z,50.18
2017-02-18T01:52:52.419Z,49.89
2017-02-18T01:53:52.840Z,49.79
2017-02-18T01:54:52.465Z,50.37
2017-02-18T01:55:52.898Z,50.18
2017-02-18T01:56:52.528Z,50.27
2017-02-18T01:57:52.948Z,50.27
2017-02-18T01:58:52.968Z,49.89
2017-02-18T01:59:52.997Z,50.57
2017-02-18T02:00:53.024Z,49.82
2017-02-18T02:01:53.054Z,49.79
2017-02-18T02:02:53.083Z,49.7
2017-02-18T02:03:53.122Z,49.89
2017-02-18T02:04:53.132Z,49.89
2017-02-18T02:05:53.161Z,49.89
2017-02-18T02:06:52.806Z,49.7
2017-02-18T02:07:52.818Z,49.89
2017-02-18T02:08:52.854Z,49.89
2017-02-18T02:09:53.524Z,50.09
2017-02-18T02:10:53.317Z,49.89
2017-02-18T02:11:53.314Z,49.99
2017-02-18T02:12:53.362Z,49.7
2017-02-18T02:13:52.985Z,49.41
2017-02-18T02:14:53.273Z,49.99
2017-02-18T02:15:53.037Z,49.99
2017-02-18T02:16:53.508Z,49.7
2017-02-18T02:17:53.482Z,49.6
2017-02-18T02:18:53.512Z,49.51
2017-02-18T02:19:53.800Z,49.41
2017-02-18T02:20:53.577Z,49.51
2017-02-18T02:21:53.201Z,49.51
2017-02-18T02:22:53.622Z,49.22
2017-02-18T02:23:53.263Z,49.22
2017-02-18T02:24:53.930Z,49.22
2017-02-18T02:25:53.722Z,49.51
2017-02-18T02:26:53.337Z,49.51
2017-02-18T02:27:53.759Z,49.6
2017-02-18T02:28:53.791Z,49.6
2017-02-18T02:29:54.063Z,49.6
2017-02-18T02:30:53.837Z,49.79
2017-02-18T02:31:53.469Z,49.7
2017-02-18T02:32:53.897Z,49.51
2017-02-18T02:33:53.941Z,49.32
2017-02-18T02:34:54.203Z,49.22
2017-02-18T02:35:53.575Z,49.12
2017-02-18T02:36:53.613Z,49.12
2017-02-18T02:37:53.639Z,49.22
2017-02-18T02:38:54.069Z,49.22
2017-02-18T02:39:53.682Z,48.93
2017-02-18T02:40:54.113Z,48.83
2017-02-18T02:41:54.133Z,49.32
2017-02-18T02:42:53.772Z,49.02
2017-02-18T02:43:54.185Z,48.93
2017-02-18T02:44:54.218Z,49.12
2017-02-18T02:45:54.241Z,48.93
2017-02-18T02:46:54.279Z,48.93
2017-02-18T02:47:53.904Z,48.93
2017-02-18T02:48:54.325Z,49.02
2017-02-18T02:49:53.966Z,49.12
2017-02-18T02:50:54.371Z,48.83
2017-02-18T02:51:54.411Z,49.02
2017-02-18T02:52:54.432Z,49.32
2017-02-18T02:53:54.462Z,49.12
2017-02-18T02:54:54.490Z,49.41
2017-02-18T02:55:54.509Z,49.32
2017-02-18T02:56:54.539Z,49.12
2017-02-18T02:57:54.577Z,49.02
2017-02-18T02:58:54.604Z,49.32
2017-02-18T02:59:54.225Z,49.12
2017-02-18T03:00:54.250Z,49.22
2017-02-18T03:01:54.678Z,49.41
2017-02-18T03:02:54.708Z,49.32
2017-02-18T03:03:54.336Z,48.83
2017-02-18T03:04:54.361Z,48.83
2017-02-18T03:05:54.391Z,48.83
2017-02-18T03:06:54.823Z,49.12
2017-02-18T03:07:54.840Z,49.22
2017-02-18T03:08:54.868Z,49.12
2017-02-18T03:09:54.888Z,49.22
2017-02-18T03:10:54.918Z,48.64
2017-02-18T03:11:54.555Z,48.64
2017-02-18T03:12:54.640Z,49.12
2017-02-18T03:13:55.007Z,48.93
2017-02-18T03:14:54.632Z,48.74
2017-02-18T03:15:55.305Z,48.83
2017-02-18T03:16:55.091Z,48.74
2017-02-18T03:17:54.712Z,48.64
2017-02-18T03:18:55.136Z,48.44
2017-02-18T03:19:55.156Z,48.64
2017-02-18T03:20:55.438Z,48.93
2017-02-18T03:21:55.226Z,49.02
2017-02-18T03:22:54.859Z,48.93
2017-02-18T03:23:54.867Z,48.83
2017-02-18T03:24:54.900Z,48.54
2017-02-18T03:25:55.573Z,48.64
2017-02-18T03:26:55.350Z,48.44
2017-02-18T03:27:55.386Z,48.93
2017-02-18T03:28:55.419Z,48.64
2017-02-18T03:29:55.048Z,48.64
2017-02-18T03:30:55.312Z,48.61
2017-02-18T03:31:55.493Z,48.83
2017-02-18T03:32:55.509Z,48.83
2017-02-18T03:33:55.547Z,49.12
2017-02-18T03:34:55.588Z,48.93
2017-02-18T03:35:55.844Z,48.93
2017-02-18T03:36:55.622Z,48.44
2017-02-18T03:37:55.257Z,48.54
2017-02-18T03:38:55.291Z,48.44
2017-02-18T03:39:55.707Z,48.44
2017-02-18T03:40:55.990Z,48.54
2017-02-18T03:41:55.765Z,48.54
2017-02-18T03:42:55.786Z,48.74
2017-02-18T03:43:55.807Z,48.44
2017-02-18T03:44:55.836Z,48.35
2017-02-18T03:45:56.123Z,48.44
2017-02-18T03:46:55.902Z,48.44
2017-02-18T03:47:55.918Z,48.44
2017-02-18T03:48:55.551Z,48.43
2017-02-18T03:49:55.579Z,48.64
2017-02-18T03:50:55.600Z,48.54
2017-02-18T03:51:55.632Z,48.16
2017-02-18T03:52:55.662Z,48.64
2017-02-18T03:53:55.690Z,48.54
2017-02-18T03:54:55.707Z,48.35
2017-02-18T03:55:55.740Z,48.16
2017-02-18T03:56:55.769Z,48.44
2017-02-18T03:57:56.196Z,48.44
2017-02-18T03:58:56.226Z,48.35
2017-02-18T03:59:56.243Z,48.06
2017-02-18T04:00:56.271Z,48.16
2017-02-18T04:01:56.303Z,48.44
2017-02-18T04:02:56.335Z,48.44
2017-02-18T04:03:56.364Z,48.44
2017-02-18T04:04:56.377Z,48.35
2017-02-18T04:05:55.999Z,48.35
2017-02-18T04:06:56.039Z,48.25
2017-02-18T04:07:56.467Z,48.16
2017-02-18T04:08:56.094Z,48.25
2017-02-18T04:09:56.118Z,48.35
2017-02-18T04:10:56.540Z,48.06
2017-02-18T04:11:56.421Z,47.58
2017-02-18T04:12:56.588Z,47.97
2017-02-18T04:13:56.224Z,47.67
2017-02-18T04:14:56.645Z,47.97
2017-02-18T04:15:56.284Z,47.97
2017-02-18T04:16:56.956Z,47.77
2017-02-18T04:17:56.728Z,47.77
2017-02-18T04:18:56.756Z,47.97
2017-02-18T04:19:56.388Z,47.97
2017-02-18T04:20:56.806Z,48.03
2017-02-18T04:21:57.095Z,48.23
2017-02-18T04:22:56.910Z,48.03
2017-02-18T04:23:56.889Z,48.13
2017-02-18T04:24:56.923Z,48.03
2017-02-18T04:25:56.938Z,47.94
2017-02-18T04:26:56.824Z,47.75
2017-02-18T04:27:56.995Z,47.94
2017-02-18T04:28:57.021Z,47.94
2017-02-18T04:29:56.649Z,47.85
2017-02-18T04:30:56.678Z,47.75
2017-02-18T04:31:56.969Z,47.65
2017-02-18T04:32:56.731Z,47.36
2017-02-18T04:33:57.161Z,47.65
2017-02-18T04:34:56.780Z,47.46
2017-02-18T04:35:56.815Z,47.56
2017-02-18T04:36:57.095Z,47.39
2017-02-18T04:37:57.264Z,47.56
2017-02-18T04:38:57.288Z,47.27
2017-02-18T04:39:57.314Z,47.56
2017-02-18T04:40:57.356Z,47.46
2017-02-18T04:41:57.619Z,47.36
2017-02-18T04:42:57.399Z,47.27
2017-02-18T04:43:57.423Z,47.27
2017-02-18T04:44:57.063Z,47.27
2017-02-18T04:45:57.483Z,47.17
2017-02-18T04:46:57.370Z,47.17
2017-02-18T04:47:57.135Z,47.08
2017-02-18T04:48:57.559Z,47.08
2017-02-18T04:49:57.192Z,47.46
2017-02-18T04:50:57.624Z,47.27
2017-02-18T04:51:57.513Z,47.56
2017-02-18T04:52:57.671Z,47.46
2017-02-18T04:53:57.299Z,47.36
2017-02-18T04:54:57.712Z,47.17
2017-02-18T04:55:57.751Z,47.65
2017-02-18T04:56:58.021Z,47.58
2017-02-18T04:57:57.814Z,47.46
2017-02-18T04:58:57.830Z,47.56
2017-02-18T04:59:57.858Z,47.65
2017-02-18T05:00:57.875Z,47.56
2017-02-18T05:01:58.161Z,47.46
2017-02-18T05:02:57.536Z,47.46
2017-02-18T05:03:57.963Z,47.75
2017-02-18T05:04:57.983Z,47.36
2017-02-18T05:05:57.625Z,47.46
2017-02-18T05:06:58.041Z,47.17
2017-02-18T05:07:57.675Z,47.17
2017-02-18T05:08:57.711Z,47.08
2017-02-18T05:09:57.736Z,46.98
2017-02-18T05:10:58.148Z,47.17
2017-02-18T05:11:57.785Z,47.17
2017-02-18T05:12:57.823Z,47.46
2017-02-18T05:13:57.834Z,47.08
2017-02-18T05:14:57.865Z,47.17
2017-02-18T05:15:58.279Z,46.88
2017-02-18T05:16:58.312Z,46.98
2017-02-18T05:17:58.339Z,47.08
2017-02-18T05:18:57.978Z,46.69
2017-02-18T05:19:58.396Z,46.88
2017-02-18T05:20:58.018Z,47.08
2017-02-18T05:21:58.049Z,47.08
2017-02-18T05:22:58.089Z,46.88
2017-02-18T05:23:58.102Z,47.17
2017-02-18T05:24:58.128Z,46.98
2017-02-18T05:25:58.157Z,46.98
2017-02-18T05:26:58.597Z,46.98
2017-02-18T05:27:58.217Z,47.27
2017-02-18T05:28:58.653Z,46.88
2017-02-18T05:29:58.658Z,46.88
2017-02-18T05:30:58.308Z,46.5
2017-02-18T05:31:58.338Z,46.59
2017-02-18T05:32:58.737Z,46.31
2017-02-18T05:33:58.774Z,46.42
2017-02-18T05:34:58.790Z,46.59
2017-02-18T05:35:58.820Z,46.42
2017-02-18T05:36:58.448Z,46.33
2017-02-18T05:37:58.725Z,46.23
2017-02-18T05:38:58.901Z,46.52
2017-02-18T05:39:58.930Z,46.42
2017-02-18T05:40:58.562Z,46.42
2017-02-18T05:41:58.982Z,46.23
2017-02-18T05:42:59.256Z,46.52
2017-02-18T05:43:58.666Z,46.52
2017-02-18T05:44:58.666Z,46.33
2017-02-18T05:45:58.690Z,46.62
2017-02-18T05:46:59.120Z,46.71
2017-02-18T05:47:59.397Z,46.33
2017-02-18T05:48:59.164Z,46.62
2017-02-18T05:49:58.854Z,45.94
2017-02-18T05:50:59.223Z,46.23
2017-02-18T05:51:59.259Z,46.33
2017-02-18T05:52:59.537Z,46.14
2017-02-18T05:53:59.302Z,46.33
2017-02-18T05:54:59.335Z,45.84
2017-02-18T05:55:58.975Z,46.04
2017-02-18T05:56:59.395Z,46.04
2017-02-18T05:57:59.663Z,45.84
2017-02-18T05:58:59.436Z,46.15
2017-02-18T05:59:59.461Z,45.94
2017-02-18T06:00:59.498Z,45.94
2017-02-18T06:01:59.125Z,46.04
2017-02-18T06:02:59.405Z,45.94
2017-02-18T06:03:59.580Z,46.15
2017-02-18T06:04:59.602Z,45.97
2017-02-18T06:05:59.623Z,45.87
2017-02-18T06:06:59.659Z,45.39
2017-02-18T06:07:59.544Z,45.48
2017-02-18T06:08:59.712Z,45.68
2017-02-18T06:09:59.742Z,45.68
2017-02-18T06:10:59.365Z,45.77
2017-02-18T06:11:59.390Z,45.77
2017-02-18T06:13:00.071Z,45.77
2017-02-18T06:13:59.455Z,45.87
2017-02-18T06:14:59.865Z,46.06
2017-02-18T06:15:59.898Z,45
2017-02-18T06:16:59.530Z,45.39
2017-02-18T06:18:00.199Z,45.2
2017-02-18T06:18:59.972Z,45.1
2017-02-18T06:19:59.608Z,45.29
2017-02-18T06:20:59.636Z,45.2
2017-02-18T06:22:00.112Z,45.29
2017-02-18T06:23:00.338Z,44.9
2017-02-18T06:24:00.113Z,45.2
2017-02-18T06:25:00.139Z,45.48
2017-02-18T06:25:59.774Z,45.48
2017-02-18T06:27:00.197Z,45.48
2017-02-18T06:28:00.474Z,45.48
2017-02-18T06:29:00.258Z,45.29
2017-02-18T06:29:59.886Z,45.1
2017-02-18T06:30:59.904Z,45.29
2017-02-18T06:32:00.327Z,45.2
2017-02-18T06:33:00.619Z,45.1
2017-02-18T06:34:00.383Z,45.39
2017-02-18T06:35:00.419Z,44.81
2017-02-18T06:36:00.040Z,44.9
2017-02-18T06:37:00.070Z,45.1
2017-02-18T06:38:00.747Z,45
2017-02-18T06:39:00.536Z,45.03
2017-02-18T06:40:00.553Z,45
2017-02-18T06:41:00.577Z,44.32
2017-02-18T06:42:00.204Z,44.64
2017-02-18T06:43:00.935Z,44.83
2017-02-18T06:44:00.655Z,44.52
2017-02-18T06:45:00.688Z,44.9
2017-02-18T06:46:00.316Z,44.52
2017-02-18T06:47:00.342Z,44.54
2017-02-18T06:48:00.625Z,44.62
2017-02-18T06:49:00.390Z,44.52
2017-02-18T06:50:00.419Z,44.81
2017-02-18T06:51:00.844Z,44.73
2017-02-18T06:52:00.491Z,44.71
2017-02-18T06:53:01.158Z,44.83
2017-02-18T06:54:00.922Z,44.9
2017-02-18T06:55:00.954Z,44.83
2017-02-18T06:56:00.985Z,44.71
2017-02-18T06:57:01.007Z,44.52
2017-02-18T06:58:00.633Z,44.73
2017-02-18T06:59:00.658Z,44.64
2017-02-18T07:00:01.104Z,44.73
2017-02-18T07:01:00.714Z,44.73
2017-02-18T07:02:01.141Z,44.42
2017-02-18T07:03:01.179Z,45
2017-02-18T07:04:01.199Z,44.93
2017-02-18T07:05:01.227Z,45.21
2017-02-18T07:06:01.249Z,45.03
2017-02-18T07:07:01.282Z,45.1
2017-02-18T07:08:01.309Z,45.2
2017-02-18T07:09:01.330Z,45.12
2017-02-18T07:10:01.364Z,45.1
2017-02-18T07:11:00.991Z,45.21
2017-02-18T07:12:01.412Z,45.12
2017-02-18T07:13:01.444Z,45.39
2017-02-18T07:14:01.474Z,45.39
2017-02-18T07:15:01.499Z,45.48
2017-02-18T07:16:01.527Z,45.48
2017-02-18T07:17:01.158Z,45.41
2017-02-18T07:18:01.189Z,45.48
2017-02-18T07:19:01.210Z,45.1
2017-02-18T07:20:01.237Z,45.31
2017-02-18T07:21:01.267Z,45.21
2017-02-18T07:22:01.295Z,45.29
2017-02-18T07:23:01.724Z,45.2
2017-02-18T07:24:01.360Z,45.29
2017-02-18T07:25:01.774Z,45.39
2017-02-18T07:26:01.808Z,45.2
2017-02-18T07:27:01.423Z,45.68
2017-02-18T07:28:01.857Z,45.39
2017-02-18T07:29:01.887Z,45.97
2017-02-18T07:30:01.906Z,45.87
2017-02-18T07:31:01.535Z,46.08
2017-02-18T07:32:01.960Z,45.68
2017-02-18T07:33:01.988Z,45.77
2017-02-18T07:34:02.022Z,45.68
2017-02-18T07:35:02.046Z,45.68
2017-02-18T07:36:02.070Z,45.77
2017-02-18T07:37:01.702Z,45.68
2017-02-18T07:38:01.736Z,45.58
2017-02-18T07:39:02.400Z,45.87
2017-02-18T07:40:02.193Z,45.48
2017-02-18T07:41:02.206Z,45.58
2017-02-18T07:42:02.239Z,45.77
2017-02-18T07:43:01.872Z,45.58
2017-02-18T07:44:02.553Z,46.15
2017-02-18T07:45:01.912Z,45.97
2017-02-18T07:46:02.350Z,46.06
2017-02-18T07:47:01.983Z,45.87
2017-02-18T07:48:02.404Z,46.35
2017-02-18T07:49:02.280Z,46.35
2017-02-18T07:50:02.056Z,46.73
2017-02-18T07:51:02.078Z,46.35
2017-02-18T07:52:02.110Z,46.45
2017-02-18T07:53:02.535Z,47.03
2017-02-18T07:54:02.812Z,46.83
2017-02-18T07:55:02.599Z,47.22
2017-02-18T07:56:02.220Z,46.93
2017-02-18T07:57:02.255Z,46.93
2017-02-18T07:58:02.670Z,47.22
2017-02-18T07:59:02.551Z,46.93
2017-02-18T08:00:02.384Z,47.12
2017-02-18T08:01:02.354Z,47.51
2017-02-18T08:02:02.798Z,47.31
2017-02-18T08:03:02.806Z,47.03
2017-02-18T08:04:03.096Z,47.12
2017-02-18T08:05:02.870Z,47.22
2017-02-18T08:06:02.493Z,47.41
2017-02-18T08:07:02.917Z,47.31
2017-02-18T08:08:02.942Z,47.22
2017-02-18T08:09:02.831Z,47.6
2017-02-18T08:10:02.596Z,47.7
2017-02-18T08:11:03.034Z,47.12
2017-02-18T08:12:03.048Z,47.03
2017-02-18T08:13:03.081Z,47.7
2017-02-18T08:14:02.955Z,47.22
2017-02-18T08:15:03.140Z,47.22
2017-02-18T08:16:02.765Z,47.22
2017-02-18T08:17:03.188Z,47.03
2017-02-18T08:18:02.813Z,47.22
2017-02-18T08:19:03.494Z,47.22
2017-02-18T08:20:02.870Z,47.12
2017-02-18T08:21:03.296Z,47.03
2017-02-18T08:22:02.928Z,47.03
2017-02-18T08:23:03.348Z,47.12
2017-02-18T08:24:03.625Z,47.22
2017-02-18T08:25:03.010Z,47.12
2017-02-18T08:26:03.448Z,47.12
2017-02-18T08:27:03.461Z,46.93
2017-02-18T08:28:03.485Z,47.03
2017-02-18T08:29:03.118Z,46.45
2017-02-18T08:30:03.564Z,46.45
2017-02-18T08:31:03.577Z,46.15
2017-02-18T08:32:03.200Z,45.97
2017-02-18T08:33:03.222Z,45.48
2017-02-18T08:34:03.252Z,45.68
2017-02-18T08:35:03.280Z,45.29
2017-02-18T08:36:03.708Z,45.48
2017-02-18T08:37:03.330Z,44.9
2017-02-18T08:38:03.361Z,44.52
2017-02-18T08:39:03.402Z,44.81
2017-02-18T08:40:03.822Z,44.23
2017-02-18T08:41:03.847Z,44.32
2017-02-18T08:42:03.867Z,44.23
2017-02-18T08:43:03.543Z,44.13
2017-02-18T08:44:03.929Z,44.81
2017-02-18T08:45:03.949Z,45.2
2017-02-18T08:46:03.983Z,45.2
2017-02-18T08:47:03.604Z,45.68
2017-02-18T08:48:03.657Z,45.87
2017-02-18T08:49:03.669Z,45.68
2017-02-18T08:50:04.081Z,46.15
2017-02-18T08:51:04.113Z,46.35
2017-02-18T08:52:03.746Z,46.25
2017-02-18T08:53:03.781Z,46.25
2017-02-18T08:54:03.795Z,46.25
2017-02-18T08:55:04.229Z,46.45
2017-02-18T08:56:04.254Z,46.35
2017-02-18T08:57:04.278Z,46.83
2017-02-18T08:58:04.300Z,46.83
2017-02-18T08:59:03.936Z,47.12
2017-02-18T09:00:04.373Z,46.83
2017-02-18T09:01:04.386Z,47.22
2017-02-18T09:02:04.413Z,47.22
2017-02-18T09:03:04.439Z,47.03
2017-02-18T09:04:04.478Z,47.31
2017-02-18T09:05:04.104Z,47.12
2017-02-18T09:06:04.521Z,47
2017-02-18T09:07:04.154Z,47.22
2017-02-18T09:08:04.575Z,47.03
2017-02-18T09:09:04.604Z,46.83
2017-02-18T09:10:04.879Z,47.12
2017-02-18T09:11:04.665Z,47.03
2017-02-18T09:12:04.682Z,46.93
2017-02-18T09:13:04.310Z,47.31
2017-02-18T09:14:04.737Z,46.81
2017-02-18T09:15:05.017Z,47.12
2017-02-18T09:16:04.393Z,47.03
2017-02-18T09:17:04.817Z,47.03
2017-02-18T09:18:04.450Z,47.31
2017-02-18T09:19:04.882Z,46.91
2017-02-18T09:20:04.771Z,46.83
2017-02-18T09:21:04.541Z,47.12
2017-02-18T09:22:05.005Z,47.12
2017-02-18T09:23:04.585Z,47.03
2017-02-18T09:24:05.010Z,47.22
2017-02-18T09:25:04.895Z,47.22
2017-02-18T09:26:04.672Z,47.03
2017-02-18T09:27:05.093Z,47.03
2017-02-18T09:28:04.717Z,47.03
2017-02-18T09:29:04.750Z,47.12
2017-02-18T09:30:05.039Z,47.31
2017-02-18T09:31:04.808Z,46.83
2017-02-18T09:32:04.832Z,47.12
2017-02-18T09:33:05.265Z,47.03
2017-02-18T09:34:05.286Z,46.73
2017-02-18T09:35:05.167Z,47.31
2017-02-18T09:36:05.339Z,46.93
2017-02-18T09:37:05.373Z,47.12
2017-02-18T09:38:05.392Z,46.93
2017-02-18T09:39:05.418Z,46.55
2017-02-18T09:40:05.699Z,46.73
2017-02-18T09:41:05.471Z,46.64
2017-02-18T09:42:05.520Z,46.64
2017-02-18T09:43:05.134Z,46.64
2017-02-18T09:44:05.161Z,46.83
2017-02-18T09:45:05.838Z,46.55
2017-02-18T09:46:05.619Z,46.55
2017-02-18T09:47:05.635Z,46.73
2017-02-18T09:48:05.663Z,46.45
2017-02-18T09:49:05.688Z,46.35
2017-02-18T09:50:05.590Z,46.73
2017-02-18T09:51:05.350Z,46.93
2017-02-18T09:52:05.377Z,47.31
2017-02-18T09:53:05.408Z,46.35
2017-02-18T09:54:05.432Z,46.35
2017-02-18T09:55:05.724Z,46.93
2017-02-18T09:56:05.491Z,47.31
2017-02-18T09:57:05.915Z,46.55
2017-02-18T09:58:05.942Z,46.55
2017-02-18T09:59:05.572Z,46.73
2017-02-18T10:00:06.256Z,46.64
2017-02-18T10:01:05.623Z,46.35
2017-02-18T10:02:05.647Z,46.93
2017-02-18T10:03:06.080Z,46.93
2017-02-18T10:04:06.104Z,46.64
2017-02-18T10:05:06.129Z,46.15
2017-02-18T10:06:06.162Z,46.25
2017-02-18T10:07:05.786Z,46.35
2017-02-18T10:08:06.219Z,46.35
2017-02-18T10:09:05.844Z,46.45
2017-02-18T10:10:05.868Z,46.25
2017-02-18T10:11:06.306Z,46.64
2017-02-18T10:12:05.925Z,46.35
2017-02-18T10:13:06.352Z,46.35
2017-02-18T10:14:05.984Z,46.55
2017-02-18T10:15:06.403Z,46.45
2017-02-18T10:16:06.090Z,46.35
2017-02-18T10:17:06.061Z,46.35
2017-02-18T10:18:06.485Z,46.45
2017-02-18T10:19:06.112Z,46.25
2017-02-18T10:20:06.542Z,46.25
2017-02-18T10:21:06.173Z,46.25
2017-02-18T10:22:06.593Z,46.55
2017-02-18T10:23:06.633Z,47.12
2017-02-18T10:24:06.651Z,46.93
2017-02-18T10:25:06.685Z,46.45
2017-02-18T10:26:06.705Z,46.25
2017-02-18T10:27:06.727Z,46.83
2017-02-18T10:28:06.360Z,47.03
2017-02-18T10:29:06.783Z,47.41
2017-02-18T10:30:06.814Z,47.6
2017-02-18T10:31:06.443Z,47.99
2017-02-18T10:32:06.865Z,48.47
2017-02-18T10:33:06.893Z,48.57
2017-02-18T10:34:06.926Z,48.66
2017-02-18T10:35:06.954Z,48.66
2017-02-18T10:36:06.980Z,48.57
2017-02-18T10:37:06.997Z,48.47
2017-02-18T10:38:06.633Z,48.76
2017-02-18T10:39:07.066Z,48.47
2017-02-18T10:40:07.085Z,48.57
2017-02-18T10:41:07.114Z,48.95
2017-02-18T10:42:06.755Z,48.76
2017-02-18T10:43:07.172Z,48.76
2017-02-18T10:44:06.808Z,48.95
2017-02-18T10:45:07.222Z,48.86
2017-02-18T10:46:07.246Z,49.15
2017-02-18T10:47:07.278Z,49.05
2017-02-18T10:48:06.904Z,49.24
2017-02-18T10:49:07.331Z,49.05
2017-02-18T10:50:06.968Z,49.24
2017-02-18T10:51:07.393Z,49.53
2017-02-18T10:52:07.416Z,49.43
2017-02-18T10:53:07.071Z,49.05
2017-02-18T10:54:07.475Z,49.34
2017-02-18T10:55:07.490Z,49.63
2017-02-18T10:56:07.537Z,49.43
2017-02-18T10:57:07.550Z,49.53
2017-02-18T10:58:07.183Z,49.53
2017-02-18T10:59:07.224Z,49.63
2017-02-18T11:00:07.241Z,49.24
2017-02-18T11:01:07.305Z,49.43
2017-02-18T11:02:07.293Z,49.63
2017-02-18T11:03:07.715Z,49.82
2017-02-18T11:04:07.743Z,49.65
2017-02-18T11:05:07.791Z,49.82
2017-02-18T11:06:07.793Z,49.91
2017-02-18T11:07:07.430Z,49.82
2017-02-18T11:08:07.853Z,49.53
2017-02-18T11:09:07.486Z,49.43
2017-02-18T11:10:07.903Z,50.11
2017-02-18T11:11:07.944Z,49.73
2017-02-18T11:12:07.969Z,50.42
2017-02-18T11:13:07.988Z,49.73
2017-02-18T11:14:07.623Z,49.15
2017-02-18T11:15:08.050Z,49.82
2017-02-18T11:16:07.676Z,50.04
2017-02-18T11:17:08.100Z,50.23
2017-02-18T11:18:08.128Z,50.32
2017-02-18T11:19:08.159Z,49.94
2017-02-18T11:20:08.178Z,49.73
2017-02-18T11:21:07.823Z,50.32
2017-02-18T11:22:07.844Z,49.84
2017-02-18T11:23:07.869Z,50.13
2017-02-18T11:24:08.317Z,49.94
2017-02-18T11:25:07.925Z,50.11
2017-02-18T11:26:08.594Z,50.04
2017-02-18T11:27:07.977Z,50.13
2017-02-18T11:28:08.417Z,50.04
2017-02-18T11:29:08.038Z,50.13
2017-02-18T11:30:08.463Z,49.94
2017-02-18T11:31:08.739Z,50.04
2017-02-18T11:32:08.126Z,50.04
2017-02-18T11:33:08.145Z,50.04
2017-02-18T11:34:08.590Z,50.04
2017-02-18T11:35:08.602Z,50.71
2017-02-18T11:36:08.879Z,49.94
2017-02-18T11:37:08.652Z,49.84
2017-02-18T11:38:08.684Z,49.84
2017-02-18T11:39:08.717Z,50.23
2017-02-18T11:40:08.733Z,49.84
2017-02-18T11:41:09.014Z,49.84
2017-02-18T11:42:08.791Z,50.04
2017-02-18T11:43:08.811Z,50.42
2017-02-18T11:44:08.855Z,49.84
2017-02-18T11:45:08.481Z,50.04
2017-02-18T11:46:09.149Z,50.62
2017-02-18T11:47:08.527Z,50.04
2017-02-18T11:48:08.955Z,50.42
2017-02-18T11:49:08.591Z,50.04
2017-02-18T11:50:09.009Z,50.42
2017-02-18T11:51:09.337Z,50.52
2017-02-18T11:52:09.067Z,50.32
2017-02-18T11:53:09.095Z,50.32
2017-02-18T11:54:08.724Z,50.23
2017-02-18T11:55:08.761Z,50.42
2017-02-18T11:56:08.801Z,50.42
2017-02-18T11:57:09.214Z,49.75
2017-02-18T11:58:09.237Z,49.84
2017-02-18T11:59:09.259Z,50.23
2017-02-18T12:00:08.892Z,50.23
2017-02-18T12:01:09.311Z,49.94
2017-02-18T12:02:08.948Z,49.84
2017-02-18T12:03:09.374Z,50.04
2017-02-18T12:04:09.011Z,49.94
2017-02-18T12:05:09.032Z,50.23
2017-02-18T12:06:09.452Z,50.04
2017-02-18T12:07:09.478Z,49.94
2017-02-18T12:08:09.110Z,50.23
2017-02-18T12:09:09.142Z,50.04
2017-02-18T12:10:09.559Z,50.13
2017-02-18T12:11:09.592Z,49.94
2017-02-18T12:12:09.624Z,49.94
2017-02-18T12:13:09.654Z,50.13
2017-02-18T12:14:09.671Z,50.42
2017-02-18T12:15:09.303Z,50.13
2017-02-18T12:16:09.729Z,51.1
2017-02-18T12:17:09.768Z,51
2017-02-18T12:18:09.783Z,51.1
2017-02-18T12:19:09.419Z,51.1
2017-02-18T12:20:09.835Z,51.1
2017-02-18T12:21:09.868Z,51.39
2017-02-18T12:22:09.893Z,51.58
2017-02-18T12:23:09.932Z,51.87
2017-02-18T12:24:09.951Z,52.06
2017-02-18T12:25:09.582Z,52.16
2017-02-18T12:26:10.032Z,52.25
2017-02-18T12:27:10.032Z,52.93
2017-02-18T12:28:09.662Z,52.55
2017-02-18T12:29:10.082Z,52.64
2017-02-18T12:30:09.710Z,52.73
2017-02-18T12:31:10.149Z,53.13
2017-02-18T12:32:10.171Z,52.93
2017-02-18T12:33:10.193Z,53.13
2017-02-18T12:34:09.824Z,52.73
2017-02-18T12:35:09.857Z,52.64
2017-02-18T12:36:10.279Z,52.73
2017-02-18T12:37:09.923Z,53.31
2017-02-18T12:38:10.331Z,53.31
2017-02-18T12:39:09.969Z,52.64
2017-02-18T12:40:10.402Z,52.64
2017-02-18T12:41:10.017Z,52.55
2017-02-18T12:42:10.442Z,52.83
2017-02-18T12:43:10.075Z,52.73
2017-02-18T12:44:10.489Z,53.13
2017-02-18T12:45:10.132Z,52.55
2017-02-18T12:46:10.158Z,52.64
2017-02-18T12:47:10.583Z,52.45
2017-02-18T12:48:10.219Z,52.83
2017-02-18T12:49:10.639Z,51.97
2017-02-18T12:50:10.665Z,52.35
2017-02-18T12:51:10.697Z,52.35
2017-02-18T12:52:10.719Z,51.58
2017-02-18T12:53:10.350Z,51.77
2017-02-18T12:54:10.383Z,51.77
2017-02-18T12:55:10.412Z,51.77